createdAt,value
2018-10-06T00:03:55.772Z,100201.73
2018-10-06T00:08:59.039Z,100200.95
2018-10-06T00:14:02.376Z,100206.27
2018-10-06T00:19:05.710Z,100199.14
2018-10-06T00:24:08.978Z,100197.36
2018-10-06T00:29:12.257Z,100188.11
2018-10-06T00:34:15.622Z,100179.42
2018-10-06T00:39:18.932Z,100188.47
2018-10-06T00:44:22.276Z,100196.09
2018-10-06T00:49:25.555Z,100196.08
2018-10-06T00:54:28.825Z,100179.81
2018-10-06T00:59:32.104Z,100173.13
2018-10-06T01:04:35.365Z,100167.77
2018-10-06T01:09:38.672Z,100153.80
2018-10-06T01:14:42.041Z,100160.28
2018-10-06T01:19:45.364Z,100152.78
2018-10-06T01:24:48.651Z,100146.58
2018-10-06T01:29:51.948Z,100151.95
2018-10-06T01:34:55.236Z,100148.50
2018-10-06T01:39:58.559Z,100155.28
2018-10-06T01:45:01.877Z,100159.14
2018-10-06T01:50:06.263Z,100152.15
2018-10-06T01:55:09.413Z,100148.87
2018-10-06T02:00:12.681Z,100143.77
2018-10-06T02:05:16.014Z,100130.48
2018-10-06T02:10:19.301Z,100121.94
2018-10-06T02:15:22.589Z,100116.36
2018-10-06T02:20:25.872Z,100115.15
2018-10-06T02:25:29.192Z,100103.53
2018-10-06T02:30:32.460Z,100100.16
2018-10-06T02:35:35.768Z,100093.23
2018-10-06T02:40:39.117Z,100087.92
2018-10-06T02:45:42.397Z,100077.35
2018-10-06T02:50:45.673Z,100068.20
2018-10-06T02:55:49.027Z,100062.43
2018-10-06T03:00:52.343Z,100073.07
2018-10-06T03:05:55.640Z,100067.55
2018-10-06T03:10:58.965Z,100060.69
2018-10-06T03:16:02.277Z,100052.50
2018-10-06T03:21:05.686Z,100045.98
2018-10-06T03:26:09.061Z,100035.12
2018-10-06T03:31:12.373Z,100028.70
2018-10-06T03:36:15.672Z,100026.36
2018-10-06T03:41:18.969Z,100020.14
2018-10-06T03:46:22.280Z,100014.39
2018-10-06T03:51:25.709Z,100010.09
2018-10-06T03:56:28.995Z,100007.63
2018-10-06T04:01:32.324Z,100004.44
2018-10-06T04:06:35.617Z,100005.12
2018-10-06T04:11:38.913Z,99999.98
2018-10-06T04:16:42.188Z,99997.43
2018-10-06T04:21:48.823Z,99990.55
2018-10-06T04:26:52.092Z,99991.27
2018-10-06T04:31:55.363Z,99987.36
2018-10-06T04:36:58.749Z,99980.81
2018-10-06T04:42:02.285Z,99978.16
2018-10-06T04:47:05.721Z,99977.64
2018-10-06T04:52:09.047Z,99973.52
2018-10-06T04:57:13.496Z,99976.29
2018-10-06T05:02:17.064Z,99973.91
2018-10-06T05:07:21.106Z,99973.78
2018-10-06T05:12:24.392Z,99970.23
2018-10-06T05:17:27.740Z,99968.11
2018-10-06T05:22:31.044Z,99976.72
2018-10-06T05:27:34.345Z,99983.09
2018-10-06T05:32:37.724Z,99986.62
2018-10-06T05:37:41.197Z,99987.79
2018-10-06T05:42:44.533Z,99983.53
2018-10-06T05:47:47.870Z,99974.53
2018-10-06T05:52:51.420Z,99976.73
2018-10-06T05:57:54.717Z,99970.08
2018-10-06T06:02:59.020Z,99974.91
2018-10-06T06:08:02.356Z,99972.16
2018-10-06T06:13:05.632Z,99982.51
2018-10-06T06:18:09.052Z,99987.92
2018-10-06T06:23:12.473Z,99977.09
2018-10-06T06:28:15.740Z,99973.91
2018-10-06T06:33:19.093Z,99971.34
2018-10-06T06:38:22.399Z,99963.89
2018-10-06T06:43:25.760Z,99957.85
2018-10-06T06:48:29.028Z,99967.13
2018-10-06T06:53:32.317Z,99966.48
2018-10-06T06:58:35.583Z,99961.00
2018-10-06T07:03:38.848Z,99959.27
2018-10-06T07:08:42.835Z,99950.25
2018-10-06T07:13:46.100Z,99955.80
2018-10-06T07:18:49.432Z,99951.45
2018-10-06T07:23:52.820Z,99948.43
2018-10-06T07:28:56.089Z,99944.01
2018-10-06T07:33:59.644Z,99938.61
2018-10-06T07:39:03.108Z,99940.71
2018-10-06T07:44:06.493Z,99937.88
2018-10-06T07:49:09.784Z,99936.20
2018-10-06T07:54:13.043Z,99938.06
2018-10-06T07:59:16.433Z,99936.30
2018-10-06T08:04:19.718Z,99932.94
2018-10-06T08:09:23.820Z,99931.80
2018-10-06T08:14:27.328Z,99926.16
2018-10-06T08:19:31.265Z,99927.92
2018-10-06T08:24:34.712Z,99922.67
2018-10-06T08:29:39.140Z,99914.75
2018-10-06T08:34:42.861Z,99912.43
2018-10-06T08:39:46.217Z,99913.33
2018-10-06T08:44:50.119Z,99915.62
2018-10-06T08:49:53.701Z,99906.30
2018-10-06T08:54:57.089Z,99905.33
2018-10-06T09:00:00.594Z,99897.84
2018-10-06T09:05:04.536Z,99898.30
2018-10-06T09:10:09.023Z,99898.61
2018-10-06T09:15:12.320Z,99897.83
2018-10-06T09:20:15.660Z,99889.81
2018-10-06T09:25:18.955Z,99886.97
2018-10-06T09:30:22.232Z,99881.98
2018-10-06T09:35:25.542Z,99865.78
2018-10-06T09:40:28.850Z,99866.98
2018-10-06T09:45:32.149Z,99858.66
2018-10-06T09:50:35.496Z,99843.88
2018-10-06T09:55:38.807Z,99835.32
2018-10-06T10:00:47.504Z,99826.88
2018-10-06T10:05:52.913Z,99817.93
2018-10-06T10:10:56.226Z,99820.95
2018-10-06T10:15:59.604Z,99822.30
2018-10-06T10:21:02.912Z,99808.72
2018-10-06T10:26:06.252Z,99807.30
2018-10-06T10:31:09.580Z,99809.04
2018-10-06T10:36:13.090Z,99799.55
2018-10-06T10:41:16.372Z,99791.02
2018-10-06T10:46:19.664Z,99790.06
2018-10-06T10:51:22.969Z,99781.00
2018-10-06T10:56:26.283Z,99777.66
2018-10-06T11:01:29.580Z,99772.53
2018-10-06T11:06:32.880Z,99771.80
2018-10-06T11:11:36.299Z,99759.38
2018-10-06T11:16:39.672Z,99747.60
2018-10-06T11:21:43.041Z,99735.57
2018-10-06T11:26:46.348Z,99734.00
2018-10-06T11:31:49.665Z,99725.74
2018-10-06T11:36:53.061Z,99729.73
2018-10-06T11:41:57.505Z,99727.42
2018-10-06T11:47:00.805Z,99708.36
2018-10-06T11:57:44.452Z,99701.74
2018-10-06T12:02:47.772Z,99700.64
2018-10-06T12:07:51.122Z,99695.38
2018-10-06T12:12:54.450Z,99693.43
2018-10-06T12:17:57.752Z,99682.64
2018-10-06T12:23:01.073Z,99681.25
2018-10-06T12:28:04.397Z,99665.66
2018-10-06T12:33:07.700Z,99662.83
2018-10-06T12:38:11.001Z,99654.66
2018-10-06T12:43:14.353Z,99652.25
2018-10-06T12:48:17.657Z,99647.65
2018-10-06T12:53:20.948Z,99635.95
2018-10-06T12:58:24.357Z,99634.48
2018-10-06T13:03:27.720Z,99634.48
2018-10-06T13:08:31.027Z,99623.98
2018-10-06T13:13:34.333Z,99615.27
2018-10-06T13:18:37.669Z,99604.92
2018-10-06T13:23:40.977Z,99606.71
2018-10-06T13:28:44.301Z,99599.50
2018-10-06T13:33:47.709Z,99588.22
2018-10-06T13:43:53.414Z,99575.27
2018-10-06T13:48:56.741Z,99572.53
2018-10-06T13:54:00.460Z,99571.78
2018-10-06T13:59:03.764Z,99565.65
2018-10-06T14:04:07.070Z,99567.10
2018-10-06T14:09:10.601Z,99566.86
2018-10-06T14:14:13.928Z,99567.13
2018-10-06T14:19:17.231Z,99560.36
2018-10-06T14:24:20.578Z,99553.81
2018-10-06T14:29:24.140Z,99551.06
2018-10-06T14:34:27.472Z,99545.91
2018-10-06T14:39:30.780Z,99546.16
2018-10-06T14:44:34.154Z,99536.37
2018-10-06T14:49:37.425Z,99528.39
2018-10-06T14:54:40.769Z,99532.22
2018-10-06T14:59:44.080Z,99523.13
2018-10-06T15:04:47.401Z,99513.91
2018-10-06T15:09:50.711Z,99519.91
2018-10-06T15:14:54.073Z,99512.30
2018-10-06T15:19:57.352Z,99507.94
2018-10-06T15:25:00.674Z,99504.64
2018-10-06T15:30:04.460Z,99506.33
2018-10-06T15:35:07.772Z,99501.84
2018-10-06T15:40:11.119Z,99497.59
2018-10-06T15:45:14.432Z,99494.67
2018-10-06T15:50:17.758Z,99497.96
2018-10-06T15:55:21.773Z,99497.68
2018-10-06T16:00:25.109Z,99495.03
2018-10-06T16:05:28.408Z,99492.08
2018-10-06T16:10:31.743Z,99489.92
2018-10-06T16:15:35.277Z,99489.13
2018-10-06T16:20:38.601Z,99486.41
2018-10-06T16:25:41.920Z,99486.13
2018-10-06T16:30:45.244Z,99490.42
2018-10-06T16:35:48.545Z,99493.64
2018-10-06T16:40:51.857Z,99499.27
2018-10-06T16:45:55.175Z,99497.64
2018-10-06T16:50:58.468Z,99507.33
2018-10-06T16:56:01.782Z,99507.05
2018-10-06T17:01:05.092Z,99504.30
2018-10-06T17:06:08.427Z,99507.22
2018-10-06T17:11:11.729Z,99513.92
2018-10-06T17:16:15.027Z,99517.12
2018-10-06T17:21:18.327Z,99518.69
2018-10-06T17:26:21.672Z,99518.95
2018-10-06T17:31:25.164Z,99520.27
2018-10-06T17:36:28.527Z,99509.73
2018-10-06T17:41:31.825Z,99514.52
2018-10-06T17:46:35.167Z,99510.41
2018-10-06T17:51:38.448Z,99512.25
2018-10-06T17:56:41.760Z,99507.94
2018-10-06T18:01:45.118Z,99512.79
2018-10-06T18:06:48.466Z,99515.21
2018-10-06T18:11:51.814Z,99513.06
2018-10-06T18:16:55.141Z,99523.28
2018-10-06T18:21:58.502Z,99523.28
2018-10-06T18:27:01.923Z,99519.75
2018-10-06T18:32:05.227Z,99520.02
2018-10-06T18:37:08.624Z,99525.89
2018-10-06T18:42:12.948Z,99523.20
2018-10-06T18:47:16.249Z,99526.11
2018-10-06T18:52:19.627Z,99530.37
2018-10-06T18:57:22.969Z,99535.66
2018-10-06T19:02:26.292Z,99537.27
2018-10-06T19:07:29.611Z,99534.27
2018-10-06T19:12:32.985Z,99540.70
2018-10-06T19:17:36.291Z,99539.28
2018-10-06T19:22:39.697Z,99531.44
2018-10-06T19:27:43.053Z,99543.48
2018-10-06T19:32:46.368Z,99546.39
2018-10-06T19:37:49.728Z,99540.45
2018-10-06T19:42:53.138Z,99547.66
2018-10-06T19:47:56.445Z,99554.38
2018-10-06T19:52:59.880Z,99544.16
2018-10-06T19:58:03.192Z,99555.12
2018-10-06T20:03:06.608Z,99561.03
2018-10-06T20:08:09.961Z,99558.02
2018-10-06T20:13:13.345Z,99557.69
2018-10-06T20:18:16.665Z,99560.05
2018-10-06T20:23:20.036Z,99556.25
2018-10-06T20:28:23.374Z,99555.41
2018-10-06T20:33:26.697Z,99556.21
2018-10-06T20:38:30.025Z,99552.39
2018-10-06T20:43:33.329Z,99561.78
2018-10-06T20:48:36.600Z,99563.38
2018-10-06T20:53:39.890Z,99559.58
2018-10-06T20:58:43.213Z,99567.36
2018-10-06T21:03:46.528Z,99561.42
2018-10-06T21:08:49.877Z,99563.50
2018-10-06T21:13:53.188Z,99574.18
2018-10-06T21:18:56.467Z,99569.02
2018-10-06T21:23:59.797Z,99569.45
2018-10-06T21:29:03.167Z,99564.77
2018-10-06T21:34:06.554Z,99565.53
2018-10-06T21:39:10.049Z,99571.16
2018-10-06T21:44:13.360Z,99575.44
2018-10-06T21:49:16.672Z,99567.31
2018-10-06T21:54:20.014Z,99564.38
2018-10-06T21:59:23.328Z,99567.56
2018-10-06T22:04:26.616Z,99571.81
2018-10-06T22:09:29.904Z,99571.28
2018-10-06T22:14:33.176Z,99567.56
2018-10-06T22:19:36.469Z,99560.80
2018-10-06T22:24:39.772Z,99564.22
2018-10-06T22:29:43.089Z,99551.56
2018-10-06T22:34:46.360Z,99549.61
2018-10-06T22:39:49.641Z,99542.00
2018-10-06T22:44:53.005Z,99543.54
2018-10-06T22:49:56.278Z,99550.14
2018-10-06T22:54:59.599Z,99542.02
2018-10-06T23:00:02.987Z,99542.77
2018-10-06T23:05:06.318Z,99542.77
2018-10-06T23:10:09.616Z,99538.66
2018-10-06T23:15:12.913Z,99539.70
2018-10-06T23:20:16.229Z,99534.80
2018-10-06T23:25:19.528Z,99533.19
2018-10-06T23:30:22.814Z,99533.10
2018-10-06T23:35:26.142Z,99529.84
2018-10-06T23:40:29.439Z,99532.98
2018-10-06T23:45:32.789Z,99529.41
2018-10-06T23:50:36.105Z,99538.42
2018-10-06T23:55:39.380Z,99536.47
